Time;durP1;ratioP1;P1;durP2;ratioP2;P2;SDS_P1;SDS_P2;PMS_P1;PMS_P2;Temp;Humidity;BMP_temperature;BMP_pressure;BME280_temperature;BME280_humidity;BME280_pressure;Samples;Min_cycle;Max_cycle;Signal;HPM_P1;HPM_P2
2022/10/31 00:00:16;;;;;;;2.22;2.13;;;;;;;;;;5058183;28;20048;-88
2022/10/31 00:02:43;;;;;;;3.72;3.38;;;;;;;;;;5071315;28;20557;-88
2022/10/31 00:05:09;;;;;;;3.70;3.40;;;;;;;;;;5071453;28;20117;-88
2022/10/31 00:07:37;;;;;;;3.13;2.92;;;;;;;;;;5071106;28;20052;-89
2022/10/31 00:10:04;;;;;;;1.98;1.88;;;;;;;;;;5055860;28;20102;-88
2022/10/31 00:12:30;;;;;;;3.13;2.92;;;;;;;;;;5051868;28;20106;-88
2022/10/31 00:14:57;;;;;;;2.78;2.60;;;;;;;;;;5066600;28;20056;-89
2022/10/31 00:17:23;;;;;;;3.00;2.70;;;;;;;;;;5053846;28;20048;-88
2022/10/31 00:19:50;;;;;;;2.97;2.78;;;;;;;;;;5051797;28;20049;-89
2022/10/31 00:22:16;;;;;;;3.05;2.85;;;;;;;;;;5051519;28;20459;-88
2022/10/31 00:24:44;;;;;;;15.10;2.80;;;;;;;;;;5051597;28;20053;-88
2022/10/31 00:27:11;;;;;;;2.53;2.40;;;;;;;;;;5051366;28;20493;-88
2022/10/31 00:29:37;;;;;;;2.97;2.70;;;;;;;;;;5062504;28;20060;-88
2022/10/31 00:32:04;;;;;;;4.53;4.13;;;;;;;;;;5060105;28;20056;-88
2022/10/31 00:34:30;;;;;;;3.60;3.40;;;;;;;;;;5051363;28;20053;-89
2022/10/31 00:36:57;;;;;;;2.40;1.90;;;;;;;;;;5050834;28;20386;-89
2022/10/31 00:39:23;;;;;;;10.75;2.78;;;;;;;;;;5060261;28;20087;-88
2022/10/31 00:41:51;;;;;;;2.00;1.77;;;;;;;;;;5071502;28;20094;-88
2022/10/31 00:44:18;;;;;;;1.55;1.48;;;;;;;;;;5063690;28;20128;-88
2022/10/31 00:46:44;;;;;;;2.63;2.53;;;;;;;;;;5052012;28;20053;-88
2022/10/31 00:49:12;;;;;;;5.80;3.78;;;;;;;;;;5061696;28;20036;-90
2022/10/31 00:51:38;;;;;;;2.38;2.17;;;;;;;;;;5075453;28;20056;-90
2022/10/31 00:54:05;;;;;;;2.08;1.95;;;;;;;;;;5075434;28;20492;-91
2022/10/31 00:56:31;;;;;;;3.92;3.53;;;;;;;;;;5075758;28;20443;-91
2022/10/31 00:58:59;;;;;;;6.90;4.57;;;;;;;;;;5071500;28;20041;-91
2022/10/31 01:01:26;;;;;;;1.83;1.73;;;;;;;;;;5055940;28;20451;-91
2022/10/31 01:03:52;;;;;;;1.60;1.50;;;;;;;;;;5056017;28;20049;-91
2022/10/31 01:06:18;;;;;;;2.33;1.52;;;;;;;;;;5055454;28;20045;-92
2022/10/31 01:08:47;;;;;;;3.58;3.35;;;;;;;;;;5054846;28;20475;-90
2022/10/31 01:11:15;;;;;;;2.13;2.03;;;;;;;;;;5055922;28;20107;-91
2022/10/31 01:13:41;;;;;;;3.45;2.78;;;;;;;;;;5055875;28;20114;-90
2022/10/31 01:16:11;;;;;;;4.18;3.85;;;;;;;;;;5055699;28;20049;-91
2022/10/31 01:18:37;;;;;;;2.90;2.70;;;;;;;;;;5055755;28;20053;-90
2022/10/31 01:21:05;;;;;;;3.72;3.53;;;;;;;;;;5055218;28;20325;-88
2022/10/31 01:23:32;;;;;;;2.70;2.50;;;;;;;;;;5074685;28;20133;-88
2022/10/31 01:26:02;;;;;;;2.40;2.30;;;;;;;;;;5073942;28;20052;-88
2022/10/31 01:28:29;;;;;;;2.40;2.25;;;;;;;;;;5074881;28;20048;-89
2022/10/31 01:30:55;;;;;;;2.47;2.35;;;;;;;;;;5055833;28;20049;-91
2022/10/31 01:33:23;;;;;;;2.25;2.15;;;;;;;;;;5055335;28;20042;-91
2022/10/31 01:35:50;;;;;;;5.03;2.78;;;;;;;;;;5054999;28;20099;-89
2022/10/31 01:38:16;;;;;;;2.47;2.20;;;;;;;;;;5054178;28;20550;-88
2022/10/31 01:40:43;;;;;;;3.30;3.00;;;;;;;;;;5054148;28;20049;-88
2022/10/31 01:43:12;;;;;;;1.73;1.23;;;;;;;;;;5054097;28;20056;-91
2022/10/31 01:45:39;;;;;;;2.58;2.42;;;;;;;;;;5055112;28;20110;-90
2022/10/31 01:48:05;;;;;;;7.03;2.95;;;;;;;;;;5054635;28;20121;-91
2022/10/31 01:50:35;;;;;;;2.58;1.85;;;;;;;;;;5068601;28;20737;-90
2022/10/31 01:53:02;;;;;;;2.13;2.03;;;;;;;;;;5073907;28;20048;-90
2022/10/31 01:55:30;;;;;;;2.30;2.17;;;;;;;;;;5054539;28;20049;-91
2022/10/31 01:57:59;;;;;;;1.67;1.58;;;;;;;;;;5053529;28;20049;-90
2022/10/31 02:00:26;;;;;;;2.58;2.38;;;;;;;;;;5066628;28;20488;-90
2022/10/31 02:02:55;;;;;;;3.33;3.13;;;;;;;;;;5074557;28;20108;-89
2022/10/31 02:05:23;;;;;;;1.80;1.70;;;;;;;;;;5074853;28;20102;-89
2022/10/31 02:07:54;;;;;;;3.00;2.15;;;;;;;;;;5073856;28;20049;-89
2022/10/31 02:10:21;;;;;;;2.25;2.05;;;;;;;;;;5071777;28;20037;-90
2022/10/31 02:12:48;;;;;;;2.00;1.90;;;;;;;;;;5063701;28;20496;-89
2022/10/31 02:15:14;;;;;;;1.25;1.23;;;;;;;;;;5055477;28;20122;-89
2022/10/31 02:17:41;;;;;;;1.60;1.45;;;;;;;;;;5054045;28;20053;-89
2022/10/31 02:20:14;;;;;;;4.53;2.20;;;;;;;;;;5054028;28;20057;-89
2022/10/31 02:22:45;;;;;;;5.03;2.28;;;;;;;;;;5053905;28;20440;-89
2022/10/31 02:25:23;;;;;;;6.07;2.15;;;;;;;;;;5062334;28;20054;-89
2022/10/31 02:27:57;;;;;;;1.60;0.82;;;;;;;;;;5073862;28;20102;-89
2022/10/31 02:30:24;;;;;;;1.90;1.70;;;;;;;;;;5073088;28;20052;-88
2022/10/31 02:32:58;;;;;;;1.58;1.50;;;;;;;;;;5073394;28;20052;-87
2022/10/31 02:35:31;;;;;;;2.72;2.60;;;;;;;;;;5073166;28;20117;-89
2022/10/31 02:38:00;;;;;;;2.17;2.08;;;;;;;;;;5072974;28;20044;-88
2022/10/31 02:40:28;;;;;;;1.73;1.60;;;;;;;;;;5072683;28;20159;-88
2022/10/31 02:43:00;;;;;;;3.97;3.15;;;;;;;;;;5072527;28;20053;-89
2022/10/31 02:45:29;;;;;;;1.30;1.20;;;;;;;;;;5062299;28;20049;-88
2022/10/31 02:48:01;;;;;;;2.75;2.55;;;;;;;;;;5053327;28;20095;-88
2022/10/31 02:50:29;;;;;;;1.67;1.58;;;;;;;;;;5053278;28;20049;-90
2022/10/31 02:52:56;;;;;;;2.28;2.17;;;;;;;;;;5053781;28;20052;-91
2022/10/31 02:55:41;;;;;;;3.58;3.38;;;;;;;;;;5053610;28;20493;-90
2022/10/31 02:58:09;;;;;;;1.27;1.17;;;;;;;;;;5053626;28;20049;-90
2022/10/31 03:00:38;;;;;;;3.42;3.08;;;;;;;;;;5063946;28;20053;-90
2022/10/31 03:03:10;;;;;;;2.58;2.40;;;;;;;;;;5067669;28;20134;-91
2022/10/31 03:05:46;;;;;;;2.15;2.05;;;;;;;;;;5063824;28;20178;-91
2022/10/31 03:08:17;;;;;;;2.92;2.72;;;;;;;;;;5073641;28;20106;-91
2022/10/31 03:10:46;;;;;;;3.50;3.20;;;;;;;;;;5073113;28;20094;-92
2022/10/31 03:13:18;;;;;;;2.30;2.10;;;;;;;;;;5073773;28;20052;-92
2022/10/31 03:15:49;;;;;;;1.85;1.75;;;;;;;;;;5061972;28;20045;-90
2022/10/31 03:18:20;;;;;;;2.13;2.03;;;;;;;;;;5052789;28;20061;-89
2022/10/31 03:20:51;;;;;;;5.57;5.35;;;;;;;;;;5053276;28;20044;-90
2022/10/31 03:23:19;;;;;;;2.15;2.05;;;;;;;;;;5053283;28;20044;-90
2022/10/31 03:25:47;;;;;;;1.90;1.63;;;;;;;;;;5063466;28;20056;-89
2022/10/31 03:28:16;;;;;;;1.88;1.77;;;;;;;;;;5072874;28;20040;-88
2022/10/31 03:30:44;;;;;;;2.17;2.03;;;;;;;;;;5061892;28;20169;-88
2022/10/31 03:33:12;;;;;;;2.55;1.42;;;;;;;;;;5051699;28;20567;-88
2022/10/31 03:35:41;;;;;;;6.40;3.08;;;;;;;;;;5052116;28;20049;-88
2022/10/31 03:38:08;;;;;;;1.98;1.88;;;;;;;;;;5052378;28;20041;-88
2022/10/31 03:40:36;;;;;;;1.75;1.20;;;;;;;;;;5061028;28;20587;-89
2022/10/31 03:43:07;;;;;;;4.50;2.20;;;;;;;;;;5072943;28;20472;-90
2022/10/31 03:45:36;;;;;;;1.85;1.75;;;;;;;;;;5064308;28;20049;-89
2022/10/31 03:48:03;;;;;;;3.05;2.85;;;;;;;;;;5051988;28;20538;-88
2022/10/31 03:50:33;;;;;;;3.83;3.53;;;;;;;;;;5059005;28;20094;-88
2022/10/31 03:53:05;;;;;;;2.05;1.95;;;;;;;;;;5072166;28;20082;-88
2022/10/31 03:55:35;;;;;;;2.35;2.25;;;;;;;;;;5064673;28;20048;-88
2022/10/31 03:58:04;;;;;;;2.40;2.30;;;;;;;;;;5051817;28;20049;-88
2022/10/31 04:00:32;;;;;;;1.15;1.05;;;;;;;;;;5058515;28;20476;-88
2022/10/31 04:03:01;;;;;;;2.30;2.20;;;;;;;;;;5070783;28;20494;-88
2022/10/31 04:05:28;;;;;;;2.95;2.75;;;;;;;;;;5051640;28;20049;-88
2022/10/31 04:07:55;;;;;;;5.95;2.00;;;;;;;;;;5051992;28;20057;-88
2022/10/31 04:10:24;;;;;;;1.83;1.73;;;;;;;;;;5052019;28;20044;-89
2022/10/31 04:12:53;;;;;;;1.52;1.42;;;;;;;;;;5051901;28;20056;-88
2022/10/31 04:15:20;;;;;;;2.40;2.20;;;;;;;;;;5051673;28;20049;-89
2022/10/31 04:17:48;;;;;;;2.17;2.05;;;;;;;;;;5051764;28;20053;-89
2022/10/31 04:20:16;;;;;;;1.85;1.75;;;;;;;;;;5051720;28;20048;-90
2022/10/31 04:22:43;;;;;;;2.70;1.75;;;;;;;;;;5054849;28;20198;-90
2022/10/31 04:25:09;;;;;;;1.48;1.38;;;;;;;;;;5056413;28;20052;-90
2022/10/31 04:27:37;;;;;;;1.98;1.88;;;;;;;;;;5056321;28;20052;-90
2022/10/31 04:30:04;;;;;;;2.75;2.55;;;;;;;;;;5056754;28;20098;-90
2022/10/31 04:32:31;;;;;;;4.32;2.28;;;;;;;;;;5056370;28;20103;-90
2022/10/31 04:34:57;;;;;;;2.30;2.20;;;;;;;;;;5056854;28;20057;-90
2022/10/31 04:37:24;;;;;;;2.05;1.58;;;;;;;;;;5076153;28;20106;-90
2022/10/31 04:39:50;;;;;;;0.93;0.93;;;;;;;;;;5076401;28;20101;-91
2022/10/31 04:42:16;;;;;;;2.10;2.00;;;;;;;;;;5057236;28;20111;-91
2022/10/31 04:44:44;;;;;;;1.98;1.88;;;;;;;;;;5056031;28;20170;-90
2022/10/31 04:47:11;;;;;;;2.15;2.05;;;;;;;;;;5073952;28;20053;-90
2022/10/31 04:49:37;;;;;;;1.90;1.80;;;;;;;;;;5076793;28;20109;-90
2022/10/31 04:52:04;;;;;;;3.45;3.25;;;;;;;;;;5058738;28;20053;-90
2022/10/31 04:54:30;;;;;;;3.50;3.30;;;;;;;;;;5055502;28;20049;-89
2022/10/31 04:56:57;;;;;;;4.28;4.07;;;;;;;;;;5055960;28;20048;-90
2022/10/31 04:59:23;;;;;;;3.20;2.88;;;;;;;;;;5055820;28;20049;-90
2022/10/31 05:01:51;;;;;;;2.78;2.67;;;;;;;;;;5055940;28;20049;-90
2022/10/31 05:04:18;;;;;;;3.00;2.72;;;;;;;;;;5055507;28;20505;-89
2022/10/31 05:06:44;;;;;;;2.65;2.55;;;;;;;;;;5055560;28;20053;-89
2022/10/31 05:09:11;;;;;;;4.60;4.40;;;;;;;;;;5063505;28;20053;-91
2022/10/31 05:11:37;;;;;;;2.78;1.45;;;;;;;;;;5062680;28;20868;-91
2022/10/31 05:14:04;;;;;;;1.80;1.67;;;;;;;;;;5060815;28;20044;-90
2022/10/31 05:16:30;;;;;;;1.63;1.52;;;;;;;;;;5065777;28;20048;-90
2022/10/31 05:18:58;;;;;;;2.63;2.47;;;;;;;;;;5074204;28;20101;-90
2022/10/31 05:21:25;;;;;;;2.60;2.47;;;;;;;;;;5074572;28;20049;-90
2022/10/31 05:23:52;;;;;;;1.75;1.65;;;;;;;;;;5074851;28;20478;-90
2022/10/31 05:26:18;;;;;;;2.85;2.65;;;;;;;;;;5066427;28;20091;-89
2022/10/31 05:28:45;;;;;;;1.88;1.77;;;;;;;;;;5055152;28;20050;-89
2022/10/31 05:31:11;;;;;;;3.15;2.95;;;;;;;;;;5062119;28;20106;-89
2022/10/31 05:33:38;;;;;;;1.90;1.73;;;;;;;;;;5074658;28;20451;-90
2022/10/31 05:36:06;;;;;;;2.97;2.78;;;;;;;;;;5067148;28;20049;-90
2022/10/31 05:38:32;;;;;;;3.08;2.95;;;;;;;;;;5054977;28;20041;-89
2022/10/31 05:41:00;;;;;;;3.72;3.40;;;;;;;;;;5054454;28;20052;-88
2022/10/31 05:43:26;;;;;;;1.98;1.70;;;;;;;;;;5054693;28;20064;-89
2022/10/31 05:45:53;;;;;;;3.05;2.28;;;;;;;;;;5058325;28;20165;-89
2022/10/31 05:48:20;;;;;;;2.25;2.13;;;;;;;;;;5074398;28;20127;-88
2022/10/31 05:50:48;;;;;;;3.17;2.97;;;;;;;;;;5074021;28;20053;-89
2022/10/31 05:53:16;;;;;;;2.50;2.40;;;;;;;;;;5074366;28;20569;-89
2022/10/31 05:55:43;;;;;;;6.28;1.85;;;;;;;;;;5070018;28;20044;-89
2022/10/31 05:58:10;;;;;;;3.75;3.45;;;;;;;;;;5051882;28;20099;-89
2022/10/31 06:00:36;;;;;;;2.33;2.13;;;;;;;;;;5053641;28;20049;-88
2022/10/31 06:03:04;;;;;;;2.88;2.67;;;;;;;;;;5053543;28;20041;-88
2022/10/31 06:05:31;;;;;;;3.67;3.45;;;;;;;;;;5054158;28;20057;-88
2022/10/31 06:07:57;;;;;;;2.45;2.28;;;;;;;;;;5053711;28;20044;-88
2022/10/31 06:10:25;;;;;;;4.03;3.72;;;;;;;;;;5053601;28;20045;-88
2022/10/31 06:12:52;;;;;;;4.25;3.95;;;;;;;;;;5077184;28;20443;-88
2022/10/31 06:15:19;;;;;;;2.05;1.95;;;;;;;;;;5078857;28;20056;-88
2022/10/31 06:17:45;;;;;;;2.95;2.75;;;;;;;;;;5055283;28;20529;-89
2022/10/31 06:20:12;;;;;;;3.60;3.40;;;;;;;;;;5053647;28;20095;-89
2022/10/31 06:22:38;;;;;;;4.40;4.18;;;;;;;;;;5052826;28;20049;-88
2022/10/31 06:25:05;;;;;;;3.05;2.92;;;;;;;;;;5053088;28;20452;-89
2022/10/31 06:27:33;;;;;;;4.82;4.53;;;;;;;;;;5067795;28;20454;-88
2022/10/31 06:29:59;;;;;;;3.70;3.40;;;;;;;;;;5073127;28;20049;-88
2022/10/31 06:32:26;;;;;;;3.42;3.20;;;;;;;;;;5058348;28;20115;-89
2022/10/31 06:34:52;;;;;;;5.75;4.57;;;;;;;;;;5052525;28;20558;-89
2022/10/31 06:37:19;;;;;;;5.82;3.92;;;;;;;;;;5065651;28;20049;-89
2022/10/31 06:39:45;;;;;;;4.72;4.53;;;;;;;;;;5073233;28;20114;-89
2022/10/31 06:42:12;;;;;;;3.03;2.83;;;;;;;;;;5054083;28;20049;-89
2022/10/31 06:44:40;;;;;;;3.95;3.65;;;;;;;;;;5054380;28;20481;-88
2022/10/31 06:47:07;;;;;;;5.00;4.70;;;;;;;;;;5061506;28;20574;-89
2022/10/31 06:49:33;;;;;;;3.50;3.17;;;;;;;;;;5053220;28;20053;-89
2022/10/31 06:52:00;;;;;;;4.85;4.50;;;;;;;;;;5052890;28;20102;-89
2022/10/31 06:54:26;;;;;;;3.08;2.88;;;;;;;;;;5052721;28;20268;-89
2022/10/31 06:56:53;;;;;;;3.95;3.63;;;;;;;;;;5052124;28;20060;-89
2022/10/31 06:59:19;;;;;;;2.28;2.08;;;;;;;;;;5052000;28;20052;-88
2022/10/31 07:01:47;;;;;;;4.25;3.95;;;;;;;;;;5055265;28;20052;-88
2022/10/31 07:04:14;;;;;;;3.50;3.28;;;;;;;;;;5059776;28;20102;-89
2022/10/31 07:06:40;;;;;;;3.35;3.22;;;;;;;;;;5051843;28;20496;-89
2022/10/31 07:09:07;;;;;;;3.83;3.58;;;;;;;;;;5056854;28;20049;-88
2022/10/31 07:11:33;;;;;;;4.85;4.55;;;;;;;;;;5066485;28;20053;-89
2022/10/31 07:14:00;;;;;;;7.72;3.13;;;;;;;;;;5051523;28;20501;-89
2022/10/31 07:16:26;;;;;;;7.30;6.28;;;;;;;;;;5057707;28;20098;-88
2022/10/31 07:18:54;;;;;;;17.52;11.63;;;;;;;;;;5071082;28;20558;-89
2022/10/31 07:21:20;;;;;;;9.43;8.70;;;;;;;;;;5060853;28;20040;-88
2022/10/31 07:23:48;;;;;;;7.95;7.35;;;;;;;;;;5052588;28;20103;-92
2022/10/31 07:26:14;;;;;;;3.38;3.13;;;;;;;;;;5053047;28;20049;-92
2022/10/31 07:28:41;;;;;;;4.45;4.15;;;;;;;;;;5053535;28;20045;-92
2022/10/31 07:31:07;;;;;;;5.68;4.55;;;;;;;;;;5052740;28;20052;-91
2022/10/31 07:33:34;;;;;;;5.45;5.03;;;;;;;;;;5061412;28;20048;-90
2022/10/31 07:36:02;;;;;;;6.47;5.10;;;;;;;;;;5051797;28;20099;-90
2022/10/31 07:38:28;;;;;;;3.80;3.50;;;;;;;;;;5052743;28;20049;-90
2022/10/31 07:40:55;;;;;;;5.93;4.85;;;;;;;;;;5052094;28;20455;-90
2022/10/31 07:43:22;;;;;;;7.30;5.47;;;;;;;;;;5052305;28;20045;-90
2022/10/31 07:45:52;;;;;;;6.50;5.43;;;;;;;;;;5052669;28;20049;-90
2022/10/31 07:48:19;;;;;;;7.30;5.00;;;;;;;;;;5070271;28;20044;-90
2022/10/31 07:50:46;;;;;;;5.25;4.38;;;;;;;;;;5072902;28;20049;-90
2022/10/31 07:53:14;;;;;;;4.97;4.57;;;;;;;;;;5055929;28;20567;-90
2022/10/31 07:55:41;;;;;;;3.45;3.17;;;;;;;;;;5052753;28;20052;-90
2022/10/31 07:58:08;;;;;;;5.68;3.10;;;;;;;;;;5052644;28;20110;-90
2022/10/31 08:00:35;;;;;;;6.32;4.68;;;;;;;;;;5052755;28;20448;-91
2022/10/31 08:03:03;;;;;;;3.78;3.20;;;;;;;;;;5066716;28;20492;-90
2022/10/31 08:05:29;;;;;;;3.30;2.78;;;;;;;;;;5073044;28;20102;-91
2022/10/31 08:07:57;;;;;;;4.53;4.15;;;;;;;;;;5070052;28;20140;-90
2022/10/31 08:10:25;;;;;;;4.15;3.85;;;;;;;;;;5052827;28;20059;-89
2022/10/31 08:12:59;;;;;;;3.60;3.30;;;;;;;;;;5065776;28;20052;-90
2022/10/31 08:15:25;;;;;;;6.70;5.75;;;;;;;;;;5073114;28;20102;-90
2022/10/31 08:17:52;;;;;;;4.72;4.28;;;;;;;;;;5072427;28;20048;-91
2022/10/31 08:20:18;;;;;;;4.35;4.05;;;;;;;;;;5072624;28;20102;-90
2022/10/31 08:22:53;;;;;;;6.72;6.13;;;;;;;;;;5068218;28;20040;-89
2022/10/31 08:25:19;;;;;;;4.25;3.85;;;;;;;;;;5070082;28;20526;-89
2022/10/31 08:27:50;;;;;;;6.20;5.22;;;;;;;;;;5061100;28;20098;-89
2022/10/31 08:30:17;;;;;;;3.42;3.15;;;;;;;;;;5052475;28;20044;-91
2022/10/31 08:32:43;;;;;;;4.05;3.75;;;;;;;;;;5052410;28;20125;-90
2022/10/31 08:35:10;;;;;;;3.22;3.03;;;;;;;;;;5052607;28;20119;-90
2022/10/31 08:37:36;;;;;;;4.07;3.72;;;;;;;;;;5051983;28;20045;-88
2022/10/31 08:40:03;;;;;;;7.25;3.65;;;;;;;;;;5052186;28;20049;-90
2022/10/31 08:42:29;;;;;;;3.35;3.15;;;;;;;;;;5054607;28;20048;-91
2022/10/31 08:44:57;;;;;;;5.20;4.80;;;;;;;;;;5066255;28;20053;-90
2022/10/31 08:47:24;;;;;;;4.50;4.15;;;;;;;;;;5056805;28;20099;-90
2022/10/31 08:49:50;;;;;;;4.45;4.13;;;;;;;;;;5069335;28;20048;-89
2022/10/31 08:52:17;;;;;;;6.55;4.93;;;;;;;;;;5066996;28;20045;-90
2022/10/31 08:54:43;;;;;;;4.00;3.70;;;;;;;;;;5051381;28;20057;-89
2022/10/31 08:57:09;;;;;;;6.90;6.30;;;;;;;;;;5054621;28;20094;-89
2022/10/31 08:59:36;;;;;;;6.25;5.88;;;;;;;;;;5071383;28;20060;-90
2022/10/31 09:02:04;;;;;;;5.50;4.70;;;;;;;;;;5070360;28;20142;-89
2022/10/31 09:04:30;;;;;;;4.55;4.15;;;;;;;;;;5066295;28;20110;-89
2022/10/31 09:06:57;;;;;;;4.60;4.30;;;;;;;;;;5051113;28;20467;-89
2022/10/31 09:09:24;;;;;;;4.78;4.47;;;;;;;;;;5054139;28;20476;-89
2022/10/31 09:11:50;;;;;;;4.13;3.83;;;;;;;;;;5054359;28;20053;-89
2022/10/31 09:14:17;;;;;;;5.22;4.82;;;;;;;;;;5054736;28;20045;-89
2022/10/31 09:16:43;;;;;;;4.78;3.65;;;;;;;;;;5054114;28;20102;-89
2022/10/31 09:19:11;;;;;;;4.75;4.45;;;;;;;;;;5054005;28;20061;-88
2022/10/31 09:21:38;;;;;;;4.97;4.68;;;;;;;;;;5054349;28;20049;-89
2022/10/31 09:24:04;;;;;;;5.50;5.03;;;;;;;;;;5072841;28;20056;-89
2022/10/31 09:26:31;;;;;;;5.90;5.45;;;;;;;;;;5074581;28;20393;-89
2022/10/31 09:28:58;;;;;;;5.32;4.82;;;;;;;;;;5074224;28;20053;-89
2022/10/31 09:31:24;;;;;;;5.90;5.47;;;;;;;;;;5074445;28;20044;-89
2022/10/31 09:33:53;;;;;;;4.82;4.35;;;;;;;;;;5074163;28;20106;-89
2022/10/31 09:36:21;;;;;;;5.75;5.05;;;;;;;;;;5074219;28;20106;-90
2022/10/31 09:38:47;;;;;;;6.88;6.43;;;;;;;;;;5074470;28;20049;-90
2022/10/31 09:41:20;;;;;;;7.47;7.07;;;;;;;;;;5064936;28;20045;-90
2022/10/31 09:43:49;;;;;;;4.82;4.43;;;;;;;;;;5054321;28;20049;-90
2022/10/31 09:46:18;;;;;;;7.00;4.72;;;;;;;;;;5061830;28;20488;-89
2022/10/31 09:48:51;;;;;;;4.47;4.07;;;;;;;;;;5066511;28;20094;-90
2022/10/31 09:51:19;;;;;;;4.15;3.83;;;;;;;;;;5074593;28;20114;-90
2022/10/31 09:53:48;;;;;;;8.75;5.32;;;;;;;;;;5071564;28;20049;-90
2022/10/31 09:56:16;;;;;;;7.50;4.90;;;;;;;;;;5074309;28;20139;-90
2022/10/31 09:58:44;;;;;;;7.70;5.85;;;;;;;;;;5071340;28;20088;-89
2022/10/31 10:01:17;;;;;;;5.10;4.80;;;;;;;;;;5062892;28;20082;-90
2022/10/31 10:03:46;;;;;;;6.50;6.05;;;;;;;;;;5055155;28;20045;-90
2022/10/31 10:06:14;;;;;;;8.98;5.40;;;;;;;;;;5054393;28;20060;-90
2022/10/31 10:08:40;;;;;;;4.90;4.57;;;;;;;;;;5069494;28;20529;-89
2022/10/31 10:11:18;;;;;;;6.47;6.07;;;;;;;;;;5073812;28;20048;-89
2022/10/31 10:13:54;;;;;;;4.97;4.68;;;;;;;;;;5060994;28;20112;-90
2022/10/31 10:16:21;;;;;;;;;;;;;;;;;;5054049;28;20048;-89
2022/10/31 10:18:56;;;;;;;8.70;7.97;;;;;;;;;;5052999;28;19921;-89
2022/10/31 10:21:27;;;;;;;7.32;6.82;;;;;;;;;;5053165;28;20056;-91
2022/10/31 10:23:57;;;;;;;6.82;4.75;;;;;;;;;;5053451;28;20459;-90
2022/10/31 10:26:29;;;;;;;6.25;5.68;;;;;;;;;;5061948;28;20056;-90
2022/10/31 10:28:58;;;;;;;7.25;6.85;;;;;;;;;;5059813;28;20103;-93
2022/10/31 10:31:26;;;;;;;6.00;5.68;;;;;;;;;;5054596;28;20079;-94
2022/10/31 10:33:59;;;;;;;5.60;5.20;;;;;;;;;;5067353;28;20052;-95
2022/10/31 10:36:28;;;;;;;5.07;4.65;;;;;;;;;;5074391;28;20172;-94
2022/10/31 10:38:56;;;;;;;6.30;5.72;;;;;;;;;;5074300;28;20052;-95
2022/10/31 10:41:24;;;;;;;6.47;6.05;;;;;;;;;;5074517;28;20044;-96
2022/10/31 10:43:51;;;;;;;6.22;5.63;;;;;;;;;;5074516;28;20072;-96
2022/10/31 10:49:07;;;;;;;7.78;7.13;;;;;;;;;;5060612;28;20068;-95
2022/10/31 10:51:39;;;;;;;6.35;5.85;;;;;;;;;;5054523;28;20106;-95
2022/10/31 10:54:14;;;;;;;4.72;4.43;;;;;;;;;;5067596;28;20063;-94
2022/10/31 10:56:46;;;;;;;6.05;5.68;;;;;;;;;;5068568;28;20106;-95
2022/10/31 10:59:15;;;;;;;6.22;4.93;;;;;;;;;;5052748;28;20485;-94
2022/10/31 11:01:42;;;;;;;8.13;7.60;;;;;;;;;;5053817;28;20735;-93
2022/10/31 11:04:15;;;;;;;5.93;5.63;;;;;;;;;;5053668;28;20048;-94
2022/10/31 11:06:42;;;;;;;7.07;6.68;;;;;;;;;;5053848;28;20048;-94
2022/10/31 11:09:11;;;;;;;5.88;5.43;;;;;;;;;;5053910;28;20095;-93
2022/10/31 11:11:39;;;;;;;5.57;5.18;;;;;;;;;;5067946;28;20049;-93
2022/10/31 11:14:12;;;;;;;5.95;5.55;;;;;;;;;;5073798;28;20102;-94
2022/10/31 11:16:41;;;;;;;5.13;4.82;;;;;;;;;;5073764;28;20101;-94
2022/10/31 11:19:08;;;;;;;9.68;9.07;;;;;;;;;;5073650;28;20451;-94
2022/10/31 11:21:35;;;;;;;5.70;5.38;;;;;;;;;;5073497;28;20098;-94
2022/10/31 11:24:05;;;;;;;6.07;5.57;;;;;;;;;;5073761;28;20049;-94
2022/10/31 11:26:34;;;;;;;5.75;5.45;;;;;;;;;;5073165;28;20078;-94
2022/10/31 11:29:02;;;;;;;5.45;4.97;;;;;;;;;;5073247;28;20060;-93
2022/10/31 11:31:30;;;;;;;5.35;5.05;;;;;;;;;;5073119;28;20519;-94
2022/10/31 11:34:01;;;;;;;6.10;5.80;;;;;;;;;;5073612;28;20049;-93
2022/10/31 11:36:28;;;;;;;7.93;7.53;;;;;;;;;;5073209;28;20165;-93
2022/10/31 11:38:55;;;;;;;6.93;6.38;;;;;;;;;;5063751;28;20110;-94
2022/10/31 11:41:26;;;;;;;8.80;8.40;;;;;;;;;;5053033;28;20481;-94
2022/10/31 11:43:55;;;;;;;5.57;5.28;;;;;;;;;;5056750;28;20105;-92
2022/10/31 11:46:27;;;;;;;6.25;5.75;;;;;;;;;;5072677;28;20053;-92
2022/10/31 11:48:54;;;;;;;5.63;5.32;;;;;;;;;;5073588;28;20045;-91
2022/10/31 11:51:23;;;;;;;8.65;8.25;;;;;;;;;;5073058;28;20490;-93
2022/10/31 11:53:52;;;;;;;7.07;6.75;;;;;;;;;;5078315;28;20048;-92
2022/10/31 11:56:18;;;;;;;8.90;8.48;;;;;;;;;;5093554;28;20048;-91
2022/10/31 11:58:55;;;;;;;5.50;5.20;;;;;;;;;;5089256;28;20049;-92
2022/10/31 12:01:24;;;;;;;7.80;7.30;;;;;;;;;;5061791;28;20041;-92
2022/10/31 12:03:55;;;;;;;5.32;4.97;;;;;;;;;;5060670;28;20052;-93
2022/10/31 12:06:24;;;;;;;5.75;5.45;;;;;;;;;;5072787;28;20054;-94
2022/10/31 12:08:51;;;;;;;4.60;4.30;;;;;;;;;;5073218;28;20125;-94
2022/10/31 12:11:38;;;;;;;9.38;7.55;;;;;;;;;;5072899;28;20044;-94
2022/10/31 12:14:09;;;;;;;7.53;7.07;;;;;;;;;;5049783;28;20049;-94
2022/10/31 12:16:40;;;;;;;6.05;5.75;;;;;;;;;;5053995;28;20110;-92
2022/10/31 12:19:12;;;;;;;4.78;4.38;;;;;;;;;;5052570;28;20057;-93
2022/10/31 12:21:59;;;;;;;3.85;3.08;;;;;;;;;;5053030;28;20095;-93
2022/10/31 12:24:34;;;;;;;5.43;5.10;;;;;;;;;;5051150;28;20049;-92
2022/10/31 12:27:06;;;;;;;8.00;7.47;;;;;;;;;;5063760;28;20048;-93
2022/10/31 12:29:38;;;;;;;7.00;6.68;;;;;;;;;;5067702;28;20110;-93
2022/10/31 12:32:22;;;;;;;6.28;5.93;;;;;;;;;;5053596;28;20099;-95
2022/10/31 12:34:57;;;;;;;7.03;6.68;;;;;;;;;;5052416;28;20099;-94
2022/10/31 12:37:34;;;;;;;6.68;6.38;;;;;;;;;;5061493;28;20048;-94
2022/10/31 12:40:08;;;;;;;5.45;4.82;;;;;;;;;;5072447;28;20131;-94
2022/10/31 12:42:42;;;;;;;6.85;6.45;;;;;;;;;;5070342;28;20070;-93
2022/10/31 12:45:17;;;;;;;6.97;6.68;;;;;;;;;;5060311;28;20493;-94
2022/10/31 12:47:51;;;;;;;6.28;5.97;;;;;;;;;;5068267;28;20059;-94
2022/10/31 12:50:28;;;;;;;6.15;5.82;;;;;;;;;;5073205;28;20048;-93
2022/10/31 12:53:05;;;;;;;8.48;8.05;;;;;;;;;;5075665;28;20106;-94
2022/10/31 12:55:42;;;;;;;7.07;6.68;;;;;;;;;;5087101;28;20124;-93
2022/10/31 12:58:10;;;;;;;5.03;4.68;;;;;;;;;;5056461;28;20114;-94
2022/10/31 13:00:38;;;;;;;6.05;5.13;;;;;;;;;;5074660;28;20397;-94
2022/10/31 13:03:15;;;;;;;4.95;4.38;;;;;;;;;;5075918;28;20090;-95
2022/10/31 13:05:43;;;;;;;6.32;5.97;;;;;;;;;;5056033;28;20468;-94
2022/10/31 13:08:11;;;;;;;7.40;6.90;;;;;;;;;;5056027;28;20057;-93
2022/10/31 13:10:43;;;;;;;8.13;7.68;;;;;;;;;;5060162;28;20052;-94
2022/10/31 13:13:13;;;;;;;7.47;6.97;;;;;;;;;;5060720;28;20106;-93
2022/10/31 13:15:46;;;;;;;5.03;4.78;;;;;;;;;;5075305;28;20048;-94
2022/10/31 13:18:16;;;;;;;3.47;3.28;;;;;;;;;;5067591;28;20792;-94
2022/10/31 13:20:45;;;;;;;6.78;6.18;;;;;;;;;;5074688;28;20052;-93
2022/10/31 13:23:14;;;;;;;7.80;7.25;;;;;;;;;;5076085;28;20060;-93
2022/10/31 13:25:45;;;;;;;8.10;6.90;;;;;;;;;;5071171;28;20121;-93
2022/10/31 13:28:16;;;;;;;4.70;4.50;;;;;;;;;;5086043;28;20032;-93
2022/10/31 13:30:42;;;;;;;4.68;4.45;;;;;;;;;;5070072;28;20118;-94
2022/10/31 13:33:13;;;;;;;8.68;8.15;;;;;;;;;;5059634;28;20090;-94
2022/10/31 13:35:42;;;;;;;6.07;5.78;;;;;;;;;;5071788;28;20053;-94
2022/10/31 13:38:16;;;;;;;7.80;7.32;;;;;;;;;;5075354;28;20450;-93
2022/10/31 13:40:46;;;;;;;5.82;5.53;;;;;;;;;;5057489;28;20053;-93
2022/10/31 13:43:19;;;;;;;5.78;5.38;;;;;;;;;;5064662;28;20040;-92
2022/10/31 13:45:50;;;;;;;4.35;4.15;;;;;;;;;;5074916;28;20056;-92
2022/10/31 13:48:32;;;;;;;4.55;4.18;;;;;;;;;;5075253;28;20056;-93
2022/10/31 13:50:59;;;;;;;7.10;6.50;;;;;;;;;;5055177;28;20041;-92
2022/10/31 13:53:36;;;;;;;4.53;4.22;;;;;;;;;;5054160;28;20048;-93
2022/10/31 13:56:12;;;;;;;5.63;5.30;;;;;;;;;;5071183;28;20055;-93
2022/10/31 13:58:38;;;;;;;6.03;5.53;;;;;;;;;;5073964;28;20566;-90
2022/10/31 14:01:13;;;;;;;4.80;4.55;;;;;;;;;;5064945;28;20459;-93
2022/10/31 14:03:40;;;;;;;5.07;4.75;;;;;;;;;;5059401;28;20053;-92
2022/10/31 14:06:08;;;;;;;5.25;5.05;;;;;;;;;;5073786;28;20060;-93
2022/10/31 14:08:36;;;;;;;4.72;4.45;;;;;;;;;;5074443;28;20082;-92
2022/10/31 14:11:02;;;;;;;5.25;4.95;;;;;;;;;;5054996;28;20103;-93
2022/10/31 14:13:33;;;;;;;5.43;5.22;;;;;;;;;;5056605;28;20083;-91
2022/10/31 14:16:01;;;;;;;6.18;3.78;;;;;;;;;;5061614;28;20053;-92
2022/10/31 14:18:31;;;;;;;3.65;3.45;;;;;;;;;;5054760;28;20048;-93
2022/10/31 14:20:57;;;;;;;4.00;3.42;;;;;;;;;;5073860;28;20052;-93
2022/10/31 14:23:33;;;;;;;3.88;3.58;;;;;;;;;;5072355;28;20109;-93
2022/10/31 14:26:31;;;;;;;6.35;6.05;;;;;;;;;;5077238;28;20462;-93
2022/10/31 14:28:59;;;;;;;4.20;3.85;;;;;;;;;;5073283;28;20091;-91
2022/10/31 14:31:33;;;;;;;5.22;4.93;;;;;;;;;;5072556;28;20052;-94
2022/10/31 14:34:00;;;;;;;3.95;3.75;;;;;;;;;;5073792;28;20056;-92
2022/10/31 14:36:29;;;;;;;4.35;4.05;;;;;;;;;;5073558;28;20094;-92
2022/10/31 14:39:01;;;;;;;4.78;4.57;;;;;;;;;;5061361;28;20464;-95
2022/10/31 14:41:38;;;;;;;4.00;3.80;;;;;;;;;;5074236;28;20052;-94
2022/10/31 14:44:20;;;;;;;4.25;4.05;;;;;;;;;;5074936;28;20484;-95
2022/10/31 14:46:51;;;;;;;4.65;4.22;;;;;;;;;;5072969;28;20106;-96
2022/10/31 14:49:27;;;;;;;4.63;4.32;;;;;;;;;;5074903;28;20052;-94
2022/10/31 14:51:53;;;;;;;4.40;4.20;;;;;;;;;;5074817;28;20173;-96
2022/10/31 14:54:24;;;;;;;4.45;4.18;;;;;;;;;;5074618;28;20451;-95